Time;durP1;ratioP1;P1;durP2;ratioP2;P2;SDS_P1;SDS_P2;PMS_P1;PMS_P2;Temp;Humidity;BMP_temperature;BMP_pressure;BME280_temperature;BME280_humidity;BME280_pressure;Samples;Min_cycle;Max_cycle;Signal;HPM_P1;HPM_P2
2023/10/06 00:00:52;;;;;;;;;22.67;16.33;;;;;14.05;100.00;102146.31;5014350;28;45580;-82
2023/10/06 00:03:20;;;;;;;;;25.33;18.33;;;;;13.99;100.00;102147.97;5019744;28;45352;-81
2023/10/06 00:05:48;;;;;;;;;26.33;18.33;;;;;14.11;100.00;102162.09;5019390;28;46323;-81
2023/10/06 00:08:20;;;;;;;;;18.67;16.33;;;;;14.12;100.00;102170.16;5019954;28;45876;-82
2023/10/06 00:10:51;;;;;;;;;15.00;13.00;;;;;13.97;100.00;102149.19;5022634;28;45524;-82
2023/10/06 00:13:19;;;;;;;;;20.33;18.00;;;;;13.90;100.00;102138.97;5015506;28;45574;-80
2023/10/06 00:15:45;;;;;;;;;19.00;18.00;;;;;14.04;100.00;102166.69;5017108;28;45500;-82
2023/10/06 00:18:24;;;;;;;;;23.00;17.67;;;;;13.99;100.00;102166.44;5027222;28;46023;-81
2023/10/06 00:20:55;;;;;;;;;22.67;17.00;;;;;13.98;100.00;102179.34;5006908;28;45763;-82
2023/10/06 00:23:22;;;;;;;;;26.67;20.00;;;;;13.88;100.00;102165.06;5015848;28;45435;-79
2023/10/06 00:25:52;;;;;;;;;20.00;16.67;;;;;13.92;100.00;102175.50;5008780;28;45655;-78
2023/10/06 00:28:32;;;;;;;;;22.67;17.67;;;;;13.93;100.00;102179.94;5025733;28;45692;-80
2023/10/06 00:31:07;;;;;;;;;18.67;17.00;;;;;13.93;100.00;102184.59;5014018;28;46091;-78
2023/10/06 00:33:33;;;;;;;;;20.00;15.67;;;;;13.86;100.00;102184.56;5026788;28;45456;-79
2023/10/06 00:38:50;;;;;;;;;18.67;18.67;;;;;13.84;100.00;102186.63;5011346;28;46021;-78
2023/10/06 00:41:17;;;;;;;;;22.00;16.33;;;;;13.80;100.00;102176.19;5011941;28;47083;-77
2023/10/06 00:43:46;;;;;;;;;18.00;16.33;;;;;13.81;100.00;102178.75;5006187;28;45785;-78
2023/10/06 00:46:14;;;;;;;;;20.33;19.00;;;;;13.77;100.00;102181.06;5014380;28;45415;-79
2023/10/06 00:48:41;;;;;;;;;17.67;14.33;;;;;13.74;100.00;102169.53;5013455;28;45884;-77
2023/10/06 00:51:15;;;;;;;;;22.33;19.33;;;;;13.71;100.00;102176.31;5012323;28;45975;-78
2023/10/06 00:53:42;;;;;;;;;19.67;17.00;;;;;13.70;100.00;102177.38;5010283;28;45845;-81
2023/10/06 00:56:15;;;;;;;;;14.67;14.33;;;;;13.70;100.00;102176.53;5022513;28;45444;-80
2023/10/06 00:58:47;;;;;;;;;26.00;19.33;;;;;13.63;100.00;102168.16;5013523;28;47408;-78
2023/10/06 01:01:16;;;;;;;;;17.67;17.67;;;;;13.60;100.00;102165.78;5031548;28;46240;-78
2023/10/06 01:03:48;;;;;;;;;13.67;11.33;;;;;13.59;100.00;102173.22;5019629;28;45638;-77
2023/10/06 01:06:22;;;;;;;;;18.00;16.67;;;;;13.55;100.00;102166.38;5012885;28;45572;-79
2023/10/06 01:08:55;;;;;;;;;16.67;14.00;;;;;13.59;100.00;102164.06;5007283;28;45827;-81
2023/10/06 01:11:26;;;;;;;;;21.67;15.00;;;;;13.56;100.00;102168.09;5004442;28;46964;-81
2023/10/06 01:13:58;;;;;;;;;17.00;15.00;;;;;13.57;100.00;102174.44;5014450;28;46037;-82
2023/10/06 01:16:38;;;;;;;;;21.67;18.00;;;;;13.53;100.00;102168.47;5011535;28;45873;-79
2023/10/06 01:19:25;;;;;;;;;22.67;17.67;;;;;13.48;100.00;102162.69;5001438;28;45847;-78
2023/10/06 01:21:53;;;;;;;;;18.67;18.00;;;;;13.48;100.00;102165.44;5010488;28;45532;-77
2023/10/06 01:24:26;;;;;;;;;19.33;17.67;;;;;13.35;100.00;102143.22;5012734;28;45472;-79
2023/10/06 01:26:54;;;;;;;;;22.00;19.67;;;;;13.47;100.00;102155.44;5007582;28;45745;-78
2023/10/06 01:29:26;;;;;;;;;22.00;19.67;;;;;13.34;100.00;102131.34;5006928;28;45455;-77
2023/10/06 01:31:51;;;;;;;;;22.00;17.67;;;;;13.40;100.00;102147.13;5011492;28;46197;-78
2023/10/06 01:34:18;;;;;;;;;22.00;18.33;;;;;13.47;100.00;102149.94;5010588;28;45992;-77
2023/10/06 01:36:51;;;;;;;;;26.00;17.67;;;;;13.46;100.00;102153.75;5009800;28;45848;-78
2023/10/06 01:39:17;;;;;;;;;25.00;23.00;;;;;13.45;100.00;102156.72;5011025;28;45914;-79
2023/10/06 01:41:47;;;;;;;;;19.00;15.33;;;;;13.43;100.00;102162.41;5020608;28;46057;-78
2023/10/06 01:44:15;;;;;;;;;17.00;15.00;;;;;13.43;100.00;102151.41;5008008;28;46033;-78
2023/10/06 01:46:41;;;;;;;;;18.00;16.00;;;;;13.37;100.00;102138.41;5002130;28;44948;-78
2023/10/06 01:49:14;;;;;;;;;19.67;18.33;;;;;13.34;100.00;102141.53;5011031;28;45415;-79
2023/10/06 01:51:40;;;;;;;;;17.33;17.00;;;;;13.42;100.00;102138.66;5006778;28;47313;-76
2023/10/06 01:54:07;;;;;;;;;23.67;19.67;;;;;13.36;100.00;102129.25;5012145;28;45481;-76
2023/10/06 01:56:35;;;;;;;;;19.33;16.33;;;;;13.37;100.00;102133.72;5001327;28;45858;-78
2023/10/06 01:59:01;;;;;;;;;18.33;16.67;;;;;13.34;100.00;102138.78;5011313;28;45712;-80
2023/10/06 02:01:27;;;;;;;;;21.00;17.67;;;;;13.33;100.00;102140.63;5004346;28;45984;-78
2023/10/06 02:03:53;;;;;;;;;23.33;18.33;;;;;13.31;100.00;102136.34;5008804;28;45416;-78
2023/10/06 02:06:18;;;;;;;;;15.00;13.67;;;;;13.13;100.00;102118.34;5011562;28;45404;-78
2023/10/06 02:08:49;;;;;;;;;26.00;20.33;;;;;13.26;100.00;102150.72;5011286;28;45609;-78
2023/10/06 02:11:15;;;;;;;;;19.33;16.67;;;;;13.21;100.00;102145.78;5009700;28;46532;-79
2023/10/06 02:13:40;;;;;;;;;22.33;18.33;;;;;13.19;100.00;102145.13;5008281;28;45688;-78
2023/10/06 02:16:06;;;;;;;;;18.00;14.67;;;;;13.15;100.00;102142.94;5001427;28;45466;-78
2023/10/06 02:18:39;;;;;;;;;22.67;13.00;;;;;13.01;100.00;102120.72;5010571;28;46066;-78
2023/10/06 02:21:11;;;;;;;;;25.00;17.67;;;;;13.11;100.00;102147.13;5007821;28;46134;-78
2023/10/06 02:23:38;;;;;;;;;15.67;11.33;;;;;12.97;100.00;102122.16;5004191;28;45843;-76
2023/10/06 02:26:07;;;;;;;;;20.33;17.00;;;;;13.03;100.00;102134.31;5011304;28;45737;-78
2023/10/06 02:28:33;;;;;;;;;2.00;0.00;;;;;13.02;100.00;102138.09;5011337;28;45874;-77
2023/10/06 02:31:05;;;;;;;;;14.33;12.33;;;;;13.00;100.00;102134.69;5007252;28;45789;-78
2023/10/06 02:33:36;;;;;;;;;18.67;18.00;;;;;12.87;100.00;102116.06;5006516;28;45513;-81
2023/10/06 02:39:05;;;;;;;;;17.67;14.00;;;;;12.86;100.00;102128.16;5008911;28;45772;-78
2023/10/06 02:41:32;;;;;;;;;22.33;17.67;;;;;12.89;100.00;102136.88;5010404;28;45893;-79
2023/10/06 02:44:07;;;;;;;;;16.00;14.00;;;;;12.91;100.00;102133.09;5007712;28;45464;-78
2023/10/06 02:46:36;;;;;;;;;13.67;13.67;;;;;12.90;100.00;102134.97;5008865;28;45802;-78
2023/10/06 02:49:07;;;;;;;;;18.00;16.67;;;;;12.90;100.00;102129.47;5010213;28;45532;-78
2023/10/06 02:51:32;;;;;;;;;20.00;16.67;;;;;12.87;100.00;102132.59;5010647;28;45437;-81
2023/10/06 02:56:43;;;;;;;;;17.00;15.00;;;;;12.84;100.00;102130.22;5013772;28;45588;-79
2023/10/06 02:59:34;;;;;;;;;15.67;10.00;;;;;12.76;100.00;102122.94;5023900;28;45391;-78
2023/10/06 03:01:57;;;;;;;;;15.33;12.33;;;;;12.69;100.00;102114.59;5018204;28;46141;-78
2023/10/06 03:04:27;;;;;;;;;12.67;12.67;;;;;12.75;100.00;102121.19;5008480;28;45595;-78
2023/10/06 03:06:58;;;;;;;;;23.33;15.33;;;;;12.79;100.00;102136.31;5009475;28;45685;-78
2023/10/06 03:09:47;;;;;;;;;15.33;15.00;;;;;12.79;100.00;102132.72;5011668;28;45812;-78
2023/10/06 03:14:48;;;;;;;;;20.33;14.67;;;;;12.69;100.00;102124.72;5015552;28;45415;-79
2023/10/06 03:17:14;;;;;;;;;19.00;14.67;;;;;12.70;100.00;102142.94;5027071;28;45544;-79
2023/10/06 03:19:44;;;;;;;;;16.67;13.33;;;;;12.66;100.00;102136.94;5000922;28;45856;-79
2023/10/06 03:22:12;;;;;;;;;23.67;15.33;;;;;12.66;100.00;102130.59;5010228;28;46496;-78
2023/10/06 03:24:53;;;;;;;;;17.00;15.67;;;;;12.63;100.00;102134.56;5007589;28;45624;-78
2023/10/06 03:27:18;;;;;;;;;18.67;15.33;;;;;12.66;100.00;102138.88;5005682;28;46179;-78
2023/10/06 03:29:51;;;;;;;;;14.67;12.00;;;;;12.55;100.00;102115.41;5004233;28;46920;-79
2023/10/06 03:32:27;;;;;;;;;20.33;15.67;;;;;12.65;100.00;102128.88;5002484;28;46012;-79
2023/10/06 03:34:54;;;;;;;;;14.67;13.67;;;;;12.57;100.00;102127.06;5005646;28;45872;-77
2023/10/06 03:37:34;;;;;;;;;14.33;13.00;;;;;12.53;100.00;102118.34;5008007;28;46082;-78
2023/10/06 03:40:23;;;;;;;;;22.00;17.33;;;;;12.59;100.00;102132.41;5010329;28;45458;-80
2023/10/06 03:42:47;;;;;;;;;17.67;15.67;;;;;12.56;100.00;102132.78;5010655;28;46112;-78
2023/10/06 03:45:34;;;;;;;;;20.33;15.67;;;;;12.51;100.00;102131.47;5010326;28;45433;-77
2023/10/06 03:48:13;;;;;;;;;13.67;13.33;;;;;12.49;100.00;102127.19;5009360;28;46026;-79
2023/10/06 03:50:41;;;;;;;;;17.67;13.67;;;;;12.48;100.00;102137.31;5000886;28;45757;-79
2023/10/06 03:53:08;;;;;;;;;13.67;11.33;;;;;12.44;100.00;102124.13;5008341;28;47314;-80
2023/10/06 03:55:44;;;;;;;;;17.33;15.33;;;;;12.45;100.00;102136.84;5011782;28;44859;-80
2023/10/06 03:58:13;;;;;;;;;15.33;15.00;;;;;12.41;100.00;102130.88;5007907;28;45854;-79
2023/10/06 04:00:40;;;;;;;;;18.67;16.33;;;;;12.22;100.00;102106.66;5006069;28;45532;-79
2023/10/06 04:03:07;;;;;;;;;19.00;18.67;;;;;12.41;100.00;102130.00;5008517;28;45713;-78
2023/10/06 04:05:37;;;;;;;;;20.00;15.00;;;;;12.25;100.00;102109.88;5023949;28;46093;-79
2023/10/06 04:08:07;;;;;;;;;20.00;17.00;;;;;12.30;100.00;102129.41;5007668;28;45363;-78
2023/10/06 04:10:35;;;;;;;;;19.33;15.33;;;;;12.17;100.00;102110.81;5007988;28;47527;-78
2023/10/06 04:13:00;;;;;;;;;18.67;17.00;;;;;12.27;100.00;102128.94;5010518;28;46298;-79
2023/10/06 04:15:26;;;;;;;;;18.00;14.33;;;;;12.31;100.00;102135.78;5008835;28;45950;-78
2023/10/06 04:17:52;;;;;;;;;20.33;14.67;;;;;12.24;100.00;102129.31;5007093;28;45704;-78
2023/10/06 04:20:17;;;;;;;;;17.00;15.67;;;;;12.27;100.00;102135.28;5008892;28;45456;-79
2023/10/06 04:22:42;;;;;;;;;14.00;14.00;;;;;12.26;100.00;102141.84;5016270;28;45867;-79
2023/10/06 04:25:10;;;;;;;;;21.00;15.33;;;;;12.25;100.00;102148.38;5010297;28;45850;-78
2023/10/06 04:27:36;;;;;;;;;21.67;19.33;;;;;12.22;100.00;102148.75;5010380;28;45743;-79
2023/10/06 04:30:04;;;;;;;;;18.67;14.00;;;;;12.18;100.00;102140.03;5009346;28;45434;-78
2023/10/06 04:32:30;;;;;;;;;110.25;90.50;;;;;12.23;100.00;102144.97;5005194;28;45881;-80
2023/10/06 04:34:57;;;;;;;;;24.33;20.33;;;;;12.23;100.00;102139.47;5005861;28;45909;-77
2023/10/06 04:37:24;;;;;;;;;27.33;17.67;;;;;12.21;100.00;102124.19;4997199;28;45906;-77
2023/10/06 04:39:50;;;;;;;;;21.00;18.00;;;;;12.15;100.00;102115.63;5030979;28;46160;-81
2023/10/06 04:42:18;;;;;;;;;20.33;18.00;;;;;12.25;100.00;102137.38;5013897;28;46516;-80
2023/10/06 04:44:48;;;;;;;;;24.67;18.00;;;;;12.19;100.00;102121.63;5007377;28;45843;-81
2023/10/06 04:47:15;;;;;;;;;23.33;19.67;;;;;12.29;100.00;102132.34;5003292;28;45807;-81
2023/10/06 04:49:41;;;;;;;;;22.67;19.33;;;;;12.29;100.00;102138.72;5014921;28;45905;-79
2023/10/06 04:52:06;;;;;;;;;18.67;15.67;;;;;12.16;100.00;102116.50;5011977;28;46796;-82
2023/10/06 04:54:32;;;;;;;;;25.33;21.33;;;;;12.31;100.00;102136.63;5018516;28;45480;-78
2023/10/06 04:56:57;;;;;;;;;25.33;19.00;;;;;12.27;100.00;102137.19;5013871;28;45857;-78
2023/10/06 04:59:23;;;;;;;;;27.67;19.67;;;;;12.25;100.00;102131.88;5006753;28;45818;-77
2023/10/06 05:01:48;;;;;;;;;24.33;19.67;;;;;12.10;100.00;102109.84;5006149;28;46193;-79
2023/10/06 05:04:13;;;;;;;;;30.67;23.33;;;;;12.28;100.00;102127.91;5011331;28;45712;-77
2023/10/06 05:06:39;;;;;;;;;24.00;19.00;;;;;12.28;100.00;102136.16;5010981;28;45868;-79
2023/10/06 05:09:06;;;;;;;;;24.67;19.33;;;;;12.15;100.00;102118.38;5013646;28;45758;-82
2023/10/06 05:11:32;;;;;;;;;29.00;24.67;;;;;12.17;100.00;102129.19;5010663;28;46939;-80
2023/10/06 05:13:58;;;;;;;;;31.00;23.67;;;;;12.22;100.00;102136.91;5008156;28;45528;-80
2023/10/06 05:16:27;;;;;;;;;30.33;22.33;;;;;12.18;100.00;102131.78;5012413;28;45836;-81
2023/10/06 05:18:53;;;;;;;;;30.33;23.00;;;;;12.18;100.00;102130.91;5009654;28;45906;-80
2023/10/06 05:21:20;;;;;;;;;25.33;22.67;;;;;12.17;100.00;102130.06;5016813;28;45495;-82
2023/10/06 05:23:45;;;;;;;;;24.00;19.33;;;;;12.21;100.00;102133.28;5013115;28;45732;-80
2023/10/06 05:26:13;;;;;;;;;21.67;15.00;;;;;12.21;100.00;102135.19;5020054;28;45843;-81
2023/10/06 05:28:38;;;;;;;;;24.33;20.33;;;;;12.21;100.00;102132.44;5012876;28;47000;-81
2023/10/06 05:31:07;;;;;;;;;22.00;19.67;;;;;12.14;100.00;102124.94;5018490;28;47005;-81
2023/10/06 05:33:33;;;;;;;;;27.33;22.00;;;;;11.96;100.00;102099.63;5029258;28;45683;-81
2023/10/06 05:35:59;;;;;;;;;28.67;21.00;;;;;12.14;100.00;102135.06;5023299;28;45166;-80
2023/10/06 05:38:25;;;;;;;;;24.67;21.33;;;;;12.09;100.00;102119.09;5015807;28;45851;-81
2023/10/06 05:40:50;;;;;;;;;22.33;16.33;;;;;12.10;100.00;102134.56;5014423;28;45823;-81
2023/10/06 05:43:16;;;;;;;;;27.67;25.33;;;;;11.99;100.00;102127.63;5026008;28;45825;-78
2023/10/06 05:45:42;;;;;;;;;18.00;17.67;;;;;12.02;100.00;102131.91;5018187;28;45519;-79
2023/10/06 05:48:10;;;;;;;;;17.00;16.00;;;;;11.98;100.00;102136.06;5016050;28;45789;-81
2023/10/06 05:50:36;;;;;;;;;23.00;15.33;;;;;11.92;100.00;102128.53;5029614;28;46142;-77
2023/10/06 05:53:04;;;;;;;;;20.67;17.00;;;;;11.92;100.00;102145.00;5013031;28;45731;-80
2023/10/06 05:55:35;;;;;;;;;19.00;15.67;;;;;11.83;100.00;102128.56;5016187;28;45771;-79
2023/10/06 05:58:03;;;;;;;;;21.00;14.67;;;;;11.84;100.00;102132.16;5033244;28;46069;-82
2023/10/06 06:00:31;;;;;;;;;15.33;12.67;;;;;11.81;100.00;102133.41;5018600;28;45666;-83
2023/10/06 06:03:10;;;;;;;;;21.67;19.67;;;;;11.83;100.00;102134.06;5015129;28;45790;-80
2023/10/06 06:05:40;;;;;;;;;15.67;13.33;;;;;11.84;100.00;102134.91;5013831;28;45528;-81
2023/10/06 06:08:09;;;;;;;;;15.67;15.00;;;;;11.87;100.00;102133.69;5011243;28;46154;-81
2023/10/06 06:11:07;;;;;;;;;;;;;;;;;;;;;
2023/10/06 06:13:21;;;;;;;;;22.00;16.33;;;;;11.88;100.00;102140.91;5003968;28;45404;-78
2023/10/06 06:15:50;;;;;;;;;19.00;17.00;;;;;11.73;100.00;102127.09;5011276;28;46364;-79
2023/10/06 06:18:15;;;;;;;;;19.33;16.67;;;;;11.86;100.00;102157.59;5012955;28;45816;-81
2023/10/06 06:20:41;;;;;;;;;21.33;19.67;;;;;11.78;100.00;102130.16;5009769;28;46333;-81
2023/10/06 06:23:09;;;;;;;;;16.67;15.67;;;;;11.84;100.00;102146.78;5000361;28;45462;-80
2023/10/06 06:25:39;;;;;;;;;20.00;15.33;;;;;11.90;100.00;102149.81;5003280;28;45807;-81
2023/10/06 06:28:05;;;;;;;;;22.00;19.67;;;;;11.93;100.00;102146.75;5008396;28;45727;-81
2023/10/06 06:30:34;;;;;;;;;24.33;20.33;;;;;11.89;100.00;102143.47;5004700;28;45641;-82
2023/10/06 06:33:04;;;;;;;;;18.67;17.33;;;;;12.11;100.00;102169.31;5012219;28;45864;-81
2023/10/06 06:35:32;;;;;;;;;24.00;20.67;;;;;12.50;100.00;102157.25;5011186;28;45625;-81
2023/10/06 06:38:01;;;;;;;;;25.33;22.00;;;;;13.03;100.00;102159.09;5007120;28;45953;-81
2023/10/06 06:40:28;;;;;;;;;28.00;22.33;;;;;13.40;100.00;102151.78;5012481;28;45823;-81
2023/10/06 06:42:55;;;;;;;;;23.67;22.33;;;;;13.72;100.00;102161.47;5007631;28;46633;-82
2023/10/06 06:45:53;;;;;;;;;22.33;20.67;;;;;14.04;100.00;102158.41;5011354;28;45537;-82
2023/10/06 06:48:19;;;;;;;;;30.67;21.33;;;;;14.36;100.00;102120.28;5002502;28;46181;-79
2023/10/06 06:50:47;;;;;;;;;23.33;17.33;;;;;14.80;100.00;102124.63;5016580;28;47181;-78
2023/10/06 06:53:13;;;;;;;;;25.00;18.67;;;;;15.25;100.00;102155.47;5008415;28;45969;-78
2023/10/06 06:55:39;;;;;;;;;28.00;20.33;;;;;15.27;100.00;102138.69;5012667;28;45450;-77
2023/10/06 06:58:10;;;;;;;;;21.00;20.67;;;;;15.48;100.00;102149.63;5010707;28;45613;-79
2023/10/06 07:00:39;;;;;;;;;23.00;18.67;;;;;15.60;100.00;102152.66;5001745;28;45927;-76
2023/10/06 07:03:04;;;;;;;;;17.00;15.67;;;;;15.65;100.00;102155.63;5009863;28;45604;-76
2023/10/06 07:05:30;;;;;;;;;26.33;21.00;;;;;15.70;100.00;102153.09;5009849;28;45828;-77
2023/10/06 07:07:56;;;;;;;;;22.67;21.67;;;;;15.64;100.00;102142.88;5011009;28;45953;-78
2023/10/06 07:10:22;;;;;;;;;26.33;20.33;;;;;15.69;100.00;102156.94;5007372;28;47514;-76
2023/10/06 07:12:52;;;;;;;;;24.33;21.33;;;;;15.62;100.00;102147.75;5011467;28;45593;-77
2023/10/06 07:15:19;;;;;;;;;26.00;21.67;;;;;15.49;100.00;102140.28;5007328;28;46088;-77
2023/10/06 07:17:47;;;;;;;;;28.33;22.00;;;;;15.63;100.00;102165.19;5009007;28;46237;-77
2023/10/06 07:20:17;;;;;;;;;74.00;55.75;;;;;15.66;100.00;102171.16;5005417;28;48072;-78
2023/10/06 07:22:47;;;;;;;;;74.75;55.00;;;;;15.61;100.00;102159.03;5007958;28;46010;-77
2023/10/06 07:25:16;;;;;;;;;24.67;22.33;;;;;15.69;100.00;102172.69;5009942;28;45695;-77
2023/10/06 07:27:46;;;;;;;;;32.00;25.67;;;;;15.66;100.00;102179.47;5009131;28;45496;-77
2023/10/06 07:30:14;;;;;;;;;29.67;25.67;;;;;15.62;100.00;102167.09;5005874;28;45859;-77
2023/10/06 07:32:43;;;;;;;;;35.00;24.00;;;;;15.64;100.00;102162.25;5006432;28;45914;-77
2023/10/06 07:35:13;;;;;;;;;31.67;24.67;;;;;15.83;100.00;102185.50;5010420;28;45716;-76
2023/10/06 07:37:42;;;;;;;;;33.33;28.33;;;;;15.80;100.00;102174.00;5007022;28;46410;-76
2023/10/06 07:40:13;;;;;;;;;30.00;24.33;;;;;15.93;100.00;102184.25;5011794;28;45900;-77
2023/10/06 07:42:46;;;;;;;;;33.00;26.67;;;;;15.97;100.00;102183.63;5018648;28;45385;-77
2023/10/06 07:45:13;;;;;;;;;28.00;27.33;;;;;15.91;100.00;102165.09;5010621;28;45852;-78
2023/10/06 07:47:40;;;;;;;;;63.25;47.50;;;;;16.05;100.00;102186.19;5008770;28;46385;-77
2023/10/06 07:50:09;;;;;;;;;40.00;30.67;;;;;16.18;100.00;102176.19;5009499;28;48160;-77
2023/10/06 07:52:36;;;;;;;;;32.67;30.33;;;;;16.29;100.00;102181.13;5015723;28;45603;-77
2023/10/06 07:55:05;;;;;;;;;30.33;23.33;;;;;16.29;100.00;102166.41;5014100;28;45545;-78
2023/10/06 07:57:33;;;;;;;;;35.00;24.00;;;;;16.42;100.00;102186.66;5009594;28;45423;-78
2023/10/06 08:00:06;;;;;;;;;32.67;25.00;;;;;16.40;100.00;102174.94;5009135;28;45533;-77
2023/10/06 08:02:33;;;;;;;;;31.67;27.00;;;;;16.50;100.00;102182.81;5008944;28;45407;-76
2023/10/06 08:05:01;;;;;;;;;29.33;24.67;;;;;16.56;100.00;102181.13;5010269;28;45852;-78
2023/10/06 08:07:27;;;;;;;;;31.33;25.33;;;;;16.78;100.00;102198.34;5009182;28;45813;-78
2023/10/06 08:09:57;;;;;;;;;37.67;31.67;;;;;16.82;100.00;102182.16;5009718;28;45925;-77
2023/10/06 08:12:23;;;;;;;;;29.67;23.00;;;;;16.91;100.00;102198.34;5009446;28;45507;-78
2023/10/06 08:14:49;;;;;;;;;30.33;26.00;;;;;17.03;100.00;102194.94;5018380;28;45514;-77
2023/10/06 08:17:14;;;;;;;;;27.33;23.67;;;;;17.14;100.00;102198.97;5010620;28;46048;-77
2023/10/06 08:19:39;;;;;;;;;30.67;27.67;;;;;17.29;100.00;102213.44;5008946;28;45787;-77
2023/10/06 08:22:06;;;;;;;;;28.00;26.33;;;;;17.37;100.00;102204.03;5015109;28;45406;-78
2023/10/06 08:24:31;;;;;;;;;28.33;27.00;;;;;17.49;100.00;102204.19;5024766;28;45652;-77
2023/10/06 08:26:57;;;;;;;;;30.67;28.33;;;;;17.47;100.00;102191.38;5010111;28;47501;-77
2023/10/06 08:29:23;;;;;;;;;38.33;29.67;;;;;17.65;100.00;102209.25;5012120;28;45844;-77
2023/10/06 08:31:48;;;;;;;;;30.00;28.67;;;;;17.64;100.00;102196.44;5021783;28;45594;-77
2023/10/06 08:34:14;;;;;;;;;38.00;30.33;;;;;17.76;100.00;102208.53;5011687;28;45738;-75
2023/10/06 08:36:41;;;;;;;;;29.00;25.33;;;;;17.86;100.00;102207.19;5012541;28;45806;-75
2023/10/06 08:39:08;;;;;;;;;38.00;29.67;;;;;17.95;100.00;102214.25;5012439;28;45976;-75
2023/10/06 08:41:38;;;;;;;;;36.67;28.33;;;;;17.92;100.00;102192.47;5012370;28;45534;-77
2023/10/06 08:44:04;;;;;;;;;33.00;30.67;;;;;18.02;100.00;102198.38;5012159;28;45701;-77
2023/10/06 08:46:33;;;;;;;;;32.00;26.67;;;;;18.17;100.00;102211.97;5011158;28;45892;-76
2023/10/06 08:48:59;;;;;;;;;27.00;24.33;;;;;18.27;100.00;102217.03;5012841;28;45610;-77
2023/10/06 08:51:30;;;;;;;;;25.67;24.00;;;;;18.33;100.00;102205.03;5014589;28;45928;-78
2023/10/06 08:53:57;;;;;;;;;26.67;25.00;;;;;18.45;100.00;102219.03;5012494;28;45688;-76
2023/10/06 08:56:23;;;;;;;;;35.33;28.67;;;;;18.50;100.00;102195.06;5013045;28;46081;-77
2023/10/06 08:58:49;;;;;;;;;28.67;24.00;;;;;18.61;100.00;102196.25;5012603;28;46042;-78
2023/10/06 09:01:18;;;;;;;;;24.67;23.00;;;;;18.78;100.00;102207.63;5011549;28;45749;-76
2023/10/06 09:03:43;;;;;;;;;24.67;24.00;;;;;18.87;100.00;102220.19;5011571;28;45440;-75
2023/10/06 09:06:11;;;;;;;;;24.33;20.33;;;;;19.02;100.00;102236.50;5011915;28;45465;-77
2023/10/06 09:08:43;;;;;;;;;24.33;19.67;;;;;19.10;100.00;102232.59;5010761;28;47364;-78
2023/10/06 09:11:09;;;;;;;;;26.00;23.33;;;;;19.22;100.00;102225.19;5012572;28;45616;-77
2023/10/06 09:13:36;;;;;;;;;28.00;23.33;;;;;19.60;100.00;102219.63;5012536;28;45437;-77
2023/10/06 09:16:08;;;;;;;;;30.67;20.33;;;;;20.47;100.00;102216.47;5011588;28;45819;-77
2023/10/06 09:18:35;;;;;;;;;23.00;21.67;;;;;21.77;100.00;102207.19;5018614;28;46737;-78
2023/10/06 09:21:10;;;;;;;;;31.00;27.67;;;;;23.19;100.00;102218.31;5010520;28;45763;-76
2023/10/06 09:23:39;;;;;;;;;38.33;33.67;;;;;24.26;100.00;102228.31;5012170;28;45699;-77
2023/10/06 09:26:07;;;;;;;;;24.67;16.67;;;;;25.26;100.00;102215.63;5012176;28;45904;-77
2023/10/06 09:28:32;;;;;;;;;23.00;20.33;;;;;26.14;100.00;102212.06;5011103;28;45823;-78
2023/10/06 09:31:05;;;;;;;;;18.67;18.00;;;;;27.10;100.00;102226.38;5012240;28;45484;-78
2023/10/06 09:33:36;;;;;;;;;18.00;15.33;;;;;27.92;98.16;102225.25;5012063;28;45892;-77
2023/10/06 09:36:06;;;;;;;;;17.33;15.33;;;;;28.87;92.15;102211.84;5010591;28;45851;-84
2023/10/06 09:38:32;;;;;;;;;20.00;17.67;;;;;29.63;83.39;102199.09;5005695;28;46128;-77
2023/10/06 09:40:58;;;;;;;;;22.67;18.00;;;;;30.31;78.51;102214.00;5012368;28;45521;-77
2023/10/06 09:43:25;;;;;;;;;18.75;13.50;;;;;30.85;74.62;102204.00;5011568;28;45603;-77
2023/10/06 09:45:52;;;;;;;;;21.33;18.67;;;;;31.52;72.33;102203.50;5014273;28;45867;-78
2023/10/06 09:48:33;;;;;;;;;18.00;17.00;;;;;32.00;68.68;102205.03;5010685;28;45507;-78
2023/10/06 09:51:01;;;;;;;;;16.50;13.75;;;;;32.41;63.37;102191.84;5011317;28;45976;-78
2023/10/06 09:53:28;;;;;;;;;18.33;15.67;;;;;32.85;62.06;102203.53;5011627;28;45466;-78
2023/10/06 09:55:53;;;;;;;;;12.00;11.75;;;;;33.25;59.25;102203.53;5009887;28;45481;-80
2023/10/06 09:58:19;;;;;;;;;11.25;7.00;;;;;33.51;57.51;102189.41;5011511;28;45572;-78
2023/10/06 10:00:45;;;;;;;;;15.00;14.00;;;;;33.44;53.65;102171.97;5010810;28;45410;-78
2023/10/06 10:03:12;;;;;;;;;15.75;10.75;;;;;33.51;52.88;102192.25;5008594;28;45889;-79
2023/10/06 10:05:38;;;;;;;;;13.75;12.00;;;;;33.56;52.53;102200.59;5001638;28;45493;-78
2023/10/06 10:08:06;;;;;;;;;11.50;9.00;;;;;33.81;52.66;102191.66;5007985;28;47580;-79
2023/10/06 10:10:34;;;;;;;;;14.25;10.75;;;;;33.86;50.90;102189.47;5009507;28;45379;-79
2023/10/06 10:13:07;;;;;;;;;9.75;9.75;;;;;33.78;50.19;102190.31;5011128;28;45822;-81
2023/10/06 10:15:51;;;;;;;;;13.25;9.25;;;;;33.80;49.45;102190.81;5020551;28;46656;-81
2023/10/06 10:18:36;;;;;;;;;12.00;10.25;;;;;33.66;49.51;102196.63;5016195;28;46639;-80
2023/10/06 10:21:04;;;;;;;;;13.00;11.00;;;;;33.56;48.73;102192.06;5012466;28;45726;-78
2023/10/06 10:23:30;;;;;;;;;10.75;9.75;;;;;33.45;49.03;102190.72;5015048;28;45985;-77
2023/10/06 10:26:23;;;;;;;;;11.75;10.25;;;;;33.39;49.13;102195.72;5012427;28;45734;-80
2023/10/06 10:29:15;;;;;;;;;13.25;9.75;;;;;33.15;48.58;102198.13;5006925;28;45665;-80
2023/10/06 10:32:12;;;;;;;;;10.25;8.75;;;;;32.85;49.39;102183.63;5005456;28;46072;-77
2023/10/06 10:35:08;;;;;;;;;12.75;10.25;;;;;32.65;49.77;102183.00;5008745;28;45492;-79
2023/10/06 10:37:51;;;;;;;;;13.50;11.25;;;;;32.33;49.83;102172.75;5000855;28;45970;-80
2023/10/06 10:40:22;;;;;;;;;11.75;10.25;;;;;32.14;50.18;102159.59;5023528;28;48272;-81
2023/10/06 10:42:54;;;;;;;;;14.50;9.25;;;;;32.10;49.93;102167.06;5004322;28;45930;-79
2023/10/06 10:45:34;;;;;;;;;10.50;10.50;;;;;31.86;50.64;102145.47;5005739;28;46019;-80
2023/10/06 10:48:23;;;;;;;;;16.75;11.25;;;;;31.67;49.39;102156.16;5009538;28;45772;-82
2023/10/06 10:51:12;;;;;;;;;11.00;7.00;;;;;31.29;50.23;102130.91;5011328;28;45572;-87
2023/10/06 10:53:49;;;;;;;;;11.00;10.00;;;;;31.12;50.37;102129.56;4999769;28;45505;-86
2023/10/06 10:56:34;;;;;;;;;11.75;8.00;;;;;30.82;50.14;102147.97;5018061;28;45425;-86
2023/10/06 10:59:02;;;;;;;;;10.25;9.75;;;;;30.49;51.62;102128.19;5004942;28;46840;-88
2023/10/06 11:01:37;;;;;;;;;9.75;7.25;;;;;30.39;51.16;102157.53;5017060;28;47037;-87
2023/10/06 11:04:18;;;;;;;;;10.50;6.25;;;;;29.95;51.10;102150.31;5016004;28;45848;-86
2023/10/06 11:06:46;;;;;;;;;12.75;11.50;;;;;29.36;51.84;102113.81;5010780;28;45827;-85
2023/10/06 11:09:27;;;;;;;;;10.25;8.75;;;;;29.15;53.92;102143.47;5016346;28;45823;-86
2023/10/06 11:12:05;;;;;;;;;12.25;8.75;;;;;28.50;53.67;102079.78;5010177;28;47313;-86
2023/10/06 11:15:05;;;;;;;;;10.00;9.75;;;;;28.43;54.75;102145.06;5008389;28;45895;-87
2023/10/06 11:17:31;;;;;;;;;9.00;9.00;;;;;28.16;55.46;102146.41;5007141;28;44875;-82
2023/10/06 11:20:27;;;;;;;;;9.75;8.00;;;;;27.82;55.88;102130.28;5006354;28;46095;-83
2023/10/06 11:22:54;;;;;;;;;11.75;8.50;;;;;27.52;56.15;102133.31;5005480;28;45930;-80
2023/10/06 11:25:26;;;;;;;;;8.00;7.00;;;;;27.30;57.56;102146.59;5022540;28;45519;-81
2023/10/06 11:28:03;;;;;;;;;15.25;10.25;;;;;26.98;57.54;102126.44;5026275;28;45908;-83